Time;durP1;ratioP1;P1;durP2;ratioP2;P2;SDS_P1;SDS_P2;PMS_P1;PMS_P2;Temp;Humidity;BMP_temperature;BMP_pressure;BME280_temperature;BME280_humidity;BME280_pressure;Samples;Min_cycle;Max_cycle;Signal;HPM_P1;HPM_P2
2022/12/19 00:01:17;;;;;;;54.30;27.92;;;0.30;99.90;;;;;;5013582;28;20419;-51
2022/12/19 00:03:54;;;;;;;55.63;27.30;;;0.50;99.90;;;;;;5013742;28;20037;-49
2022/12/19 00:06:20;;;;;;;57.45;27.98;;;0.30;99.90;;;;;;4995886;28;20116;-47
2022/12/19 00:08:48;;;;;;;57.00;28.30;;;0.40;99.90;;;;;;5013351;28;20052;-49
2022/12/19 00:11:15;;;;;;;53.17;26.38;;;0.20;99.90;;;;;;5012036;28;20038;-48
2022/12/19 00:13:41;;;;;;;57.78;27.48;;;0.30;99.90;;;;;;5013431;28;20124;-49
2022/12/19 00:16:10;;;;;;;54.10;26.90;;;0.60;99.90;;;;;;5011195;28;20041;-50
2022/12/19 00:18:38;;;;;;;49.00;24.30;;;0.40;99.90;;;;;;5013026;28;20049;-51
2022/12/19 00:21:05;;;;;;;52.40;25.58;;;0.30;99.90;;;;;;5012893;28;20046;-53
2022/12/19 00:23:33;;;;;;;51.78;26.10;;;0.40;99.90;;;;;;5013572;28;20493;-47
2022/12/19 00:26:10;;;;;;;50.50;24.98;;;1.30;99.90;;;;;;5028761;28;20048;-48
2022/12/19 00:28:36;;;;;;;52.83;25.95;;;0.60;99.90;;;;;;5028773;28;20484;-50
2022/12/19 00:31:03;;;;;;;51.17;24.90;;;0.60;99.90;;;;;;5015733;28;20040;-50
2022/12/19 00:33:29;;;;;;;53.80;26.75;;;0.40;99.90;;;;;;5013189;28;20076;-47
2022/12/19 00:36:03;;;;;;;50.35;26.05;;;0.70;99.90;;;;;;5013196;28;20073;-49
2022/12/19 00:38:29;;;;;;;49.90;25.67;;;0.70;99.90;;;;;;4995687;28;20034;-49
2022/12/19 00:41:04;;;;;;;56.78;26.88;;;0.80;99.90;;;;;;5012579;28;20037;-49
2022/12/19 00:43:30;;;;;;;56.17;26.70;;;0.50;99.90;;;;;;4995201;28;20045;-51
2022/12/19 00:45:55;;;;;;;58.53;26.35;;;0.50;99.90;;;;;;5012900;28;20030;-51
2022/12/19 00:48:21;;;;;;;51.50;25.73;;;0.70;99.90;;;;;;5011597;28;20034;-48
2022/12/19 00:50:47;;;;;;;51.92;26.75;;;0.50;99.90;;;;;;5013102;28;20107;-52
2022/12/19 00:53:12;;;;;;;53.22;26.98;;;0.60;99.90;;;;;;5012637;28;20041;-49
2022/12/19 00:55:38;;;;;;;49.53;25.05;;;0.60;99.90;;;;;;5012747;28;20116;-47
2022/12/19 00:58:04;;;;;;;51.13;26.25;;;0.60;99.90;;;;;;5012002;28;20529;-49
2022/12/19 01:00:29;;;;;;;59.08;27.27;;;0.80;99.90;;;;;;5012762;28;20033;-52
2022/12/19 01:02:55;;;;;;;61.10;27.27;;;0.70;99.90;;;;;;5011097;28;20125;-51
2022/12/19 01:05:21;;;;;;;56.15;26.42;;;0.60;99.90;;;;;;5012511;28;20048;-50
2022/12/19 01:07:47;;;;;;;51.88;25.38;;;0.60;99.90;;;;;;5011967;28;20049;-51
2022/12/19 01:10:12;;;;;;;54.28;25.75;;;0.90;99.90;;;;;;5012455;28;20480;-48
2022/12/19 01:12:47;;;;;;;52.70;26.58;;;0.80;99.90;;;;;;5012176;28;20037;-52
2022/12/19 01:15:21;;;;;;;53.00;26.95;;;0.60;99.90;;;;;;5012148;28;20046;-48
2022/12/19 01:17:48;;;;;;;54.30;26.55;;;0.70;99.90;;;;;;5011787;28;20053;-50
2022/12/19 01:20:17;;;;;;;51.85;25.92;;;0.80;99.90;;;;;;5012371;28;20080;-50
2022/12/19 01:22:44;;;;;;;54.00;25.70;;;0.90;99.90;;;;;;5011223;28;20450;-48
2022/12/19 01:25:10;;;;;;;57.03;26.63;;;0.80;99.90;;;;;;5012154;28;20128;-50
2022/12/19 01:27:36;;;;;;;53.47;26.23;;;0.90;99.90;;;;;;5011389;28;20056;-51
2022/12/19 01:30:04;;;;;;;51.88;26.23;;;0.70;99.90;;;;;;5012071;28;20042;-50
2022/12/19 01:32:29;;;;;;;55.20;26.38;;;0.70;99.90;;;;;;5012019;28;20167;-51
2022/12/19 01:34:55;;;;;;;60.13;27.63;;;1.00;99.90;;;;;;5012188;28;20471;-51
2022/12/19 01:37:21;;;;;;;51.60;25.45;;;0.70;99.90;;;;;;5011917;28;20188;-47
2022/12/19 01:39:47;;;;;;;55.67;26.77;;;0.70;99.90;;;;;;5011660;28;20080;-48
2022/12/19 01:42:21;;;;;;;55.83;25.83;;;0.80;99.90;;;;;;5011787;28;20120;-51
2022/12/19 01:45:08;;;;;;;55.42;25.77;;;0.80;99.90;;;;;;5011682;28;20038;-50
2022/12/19 01:47:59;;;;;;;55.53;25.40;;;0.60;99.90;;;;;;5009438;28;20104;-49
2022/12/19 01:50:33;;;;;;;58.10;27.52;;;1.50;99.90;;;;;;5011116;28;20042;-49
2022/12/19 01:53:00;;;;;;;55.03;26.50;;;1.00;99.90;;;;;;5010457;28;20100;-48
2022/12/19 01:55:26;;;;;;;62.63;28.55;;;0.80;99.90;;;;;;4993143;28;20069;-47
2022/12/19 01:57:54;;;;;;;56.55;27.50;;;0.60;99.90;;;;;;5010479;28;20484;-49
2022/12/19 02:00:20;;;;;;;53.85;27.23;;;1.10;99.90;;;;;;5008946;28;20041;-49
2022/12/19 02:02:54;;;;;;;60.65;28.17;;;0.60;99.90;;;;;;4992552;28;20038;-50
2022/12/19 02:05:20;;;;;;;65.35;29.65;;;0.90;99.90;;;;;;5010965;28;20076;-48
2022/12/19 02:07:47;;;;;;;61.08;28.85;;;0.90;99.90;;;;;;5010839;28;20049;-50
2022/12/19 02:10:13;;;;;;;60.67;26.88;;;1.00;99.90;;;;;;5010454;28;20034;-49
2022/12/19 02:12:42;;;;;;;64.32;29.70;;;1.10;99.90;;;;;;4993030;28;20396;-53
2022/12/19 02:15:09;;;;;;;64.38;29.13;;;1.00;99.90;;;;;;5010045;28;20045;-49
2022/12/19 02:17:56;;;;;;;61.92;28.48;;;0.70;99.90;;;;;;5010094;28;20050;-50
2022/12/19 02:20:52;;;;;;;70.32;30.38;;;0.80;99.90;;;;;;5010984;28;20064;-48
2022/12/19 02:23:46;;;;;;;66.80;28.75;;;1.10;99.90;;;;;;5010301;28;20041;-48
2022/12/19 02:26:55;;;;;;;63.28;29.10;;;0.70;99.90;;;;;;5010568;28;20033;-51
2022/12/19 02:29:56;;;;;;;70.28;30.08;;;0.60;99.90;;;;;;4986986;28;20514;-48
2022/12/19 02:32:33;;;;;;;66.35;30.67;;;0.80;99.90;;;;;;4985967;28;20052;-47
2022/12/19 02:35:15;;;;;;;73.05;31.98;;;1.30;99.90;;;;;;5010419;28;20427;-48
2022/12/19 02:38:01;;;;;;;55.35;26.65;;;1.30;99.90;;;;;;5008836;28;20049;-47
2022/12/19 02:40:33;;;;;;;60.83;29.25;;;0.80;99.90;;;;;;5009820;28;20095;-52
2022/12/19 02:43:00;;;;;;;65.18;30.35;;;0.80;99.90;;;;;;5009893;28;20135;-47
2022/12/19 02:45:35;;;;;;;71.15;31.85;;;0.80;99.90;;;;;;5010556;28;20140;-52
2022/12/19 02:48:04;;;;;;;73.85;33.55;;;1.20;99.90;;;;;;5010459;28;20041;-49
2022/12/19 02:50:37;;;;;;;68.72;31.77;;;1.00;99.90;;;;;;5010588;28;20096;-52
2022/12/19 02:53:03;;;;;;;72.10;32.53;;;1.40;99.90;;;;;;5010621;28;20033;-49
2022/12/19 02:55:33;;;;;;;74.90;33.20;;;0.80;99.90;;;;;;5010897;28;20046;-49
2022/12/19 02:58:16;;;;;;;67.75;32.72;;;0.80;99.90;;;;;;5010499;28;20130;-48
2022/12/19 03:01:26;;;;;;;71.28;32.70;;;1.40;99.90;;;;;;5011146;28;20046;-52
2022/12/19 03:04:01;;;;;;;81.85;35.33;;;1.00;99.90;;;;;;4997616;28;20054;-48
2022/12/19 03:06:41;;;;;;;69.18;30.48;;;1.50;99.90;;;;;;5011030;28;20045;-48
2022/12/19 03:09:37;;;;;;;73.68;34.72;;;1.60;99.90;;;;;;5010593;28;20038;-50
2022/12/19 03:12:10;;;;;;;76.43;32.00;;;1.50;99.90;;;;;;5010866;28;20112;-52
2022/12/19 03:14:36;;;;;;;83.13;34.63;;;1.50;99.90;;;;;;5010721;28;20037;-51
2022/12/19 03:17:07;;;;;;;77.28;34.65;;;1.60;99.90;;;;;;5010700;28;20388;-51
2022/12/19 03:19:34;;;;;;;90.95;37.08;;;1.60;99.90;;;;;;5009230;28;20583;-48
2022/12/19 03:22:00;;;;;;;87.50;36.80;;;1.00;99.90;;;;;;5010660;28;20137;-50
2022/12/19 03:24:27;;;;;;;78.57;35.08;;;1.30;99.90;;;;;;5010723;28;20113;-49
2022/12/19 03:27:00;;;;;;;72.65;35.55;;;1.00;99.90;;;;;;5009970;28;20130;-51
2022/12/19 03:29:52;;;;;;;88.53;38.95;;;1.90;99.90;;;;;;4993030;28;20041;-48
2022/12/19 03:32:21;;;;;;;87.57;37.33;;;1.90;99.90;;;;;;5010525;28;20128;-52
2022/12/19 03:34:56;;;;;;;74.35;33.90;;;1.30;99.90;;;;;;4992755;28;20060;-49
2022/12/19 03:37:26;;;;;;;82.90;37.97;;;1.30;99.90;;;;;;5009499;28;20065;-50
2022/12/19 03:39:56;;;;;;;92.00;38.28;;;1.80;99.90;;;;;;4992492;28;20042;-49
2022/12/19 03:45:10;;;;;;;89.78;39.10;;;2.00;99.90;;;;;;5010527;28;20543;-50
2022/12/19 03:47:40;;;;;;;86.97;35.97;;;2.00;99.90;;;;;;4992667;28;20140;-48
2022/12/19 03:50:08;;;;;;;88.88;38.70;;;1.50;99.90;;;;;;5011639;28;20434;-49
2022/12/19 03:52:33;;;;;;;88.32;38.40;;;2.00;99.90;;;;;;5014075;28;20469;-48
2022/12/19 03:55:11;;;;;;;85.97;37.65;;;1.40;99.90;;;;;;5014431;28;20084;-51
2022/12/19 03:58:03;;;;;;;75.07;34.90;;;1.60;99.90;;;;;;5013488;28;20096;-49
2022/12/19 04:00:32;;;;;;;94.63;39.08;;;1.60;99.90;;;;;;5013935;28;20042;-50
2022/12/19 04:02:58;;;;;;;83.63;38.63;;;1.50;99.90;;;;;;4996141;28;20041;-52
2022/12/19 04:05:26;;;;;;;81.35;35.65;;;2.30;99.90;;;;;;5013424;28;20172;-51
2022/12/19 04:07:56;;;;;;;78.20;34.97;;;1.60;99.90;;;;;;5013763;28;20042;-47
2022/12/19 04:10:25;;;;;;;82.20;36.97;;;2.00;99.90;;;;;;5013442;28;20076;-53
2022/12/19 04:13:00;;;;;;;81.30;35.83;;;2.30;99.90;;;;;;5013695;28;20420;-50
2022/12/19 04:15:47;;;;;;;86.10;37.58;;;2.00;99.90;;;;;;5012175;28;20049;-48
2022/12/19 04:18:14;;;;;;;80.18;36.45;;;1.60;99.90;;;;;;5013471;28;20065;-48
2022/12/19 04:20:46;;;;;;;75.68;35.58;;;2.40;99.90;;;;;;5012082;28;20046;-50
2022/12/19 04:23:29;;;;;;;80.45;36.03;;;2.00;99.90;;;;;;5013361;28;20057;-50
2022/12/19 04:25:59;;;;;;;78.35;36.65;;;2.50;99.90;;;;;;5013427;28;20041;-51
2022/12/19 04:28:31;;;;;;;81.60;36.92;;;2.30;99.90;;;;;;5013083;28;20046;-52
2022/12/19 04:30:57;;;;;;;75.85;36.55;;;2.70;99.90;;;;;;4995482;28;20042;-51
2022/12/19 04:33:23;;;;;;;81.78;37.33;;;2.30;99.90;;;;;;5013612;28;20050;-48
2022/12/19 04:35:49;;;;;;;80.53;36.42;;;2.00;99.90;;;;;;5012954;28;20622;-49
2022/12/19 04:38:15;;;;;;;83.13;38.17;;;2.20;99.90;;;;;;5012800;28;20052;-49
2022/12/19 04:40:40;;;;;;;78.40;37.10;;;2.20;99.90;;;;;;5013129;28;20048;-50
2022/12/19 04:43:07;;;;;;;84.85;39.03;;;2.60;99.90;;;;;;5012762;28;20029;-47
2022/12/19 04:45:33;;;;;;;78.90;37.90;;;3.20;99.90;;;;;;5011902;28;20045;-50
2022/12/19 04:47:58;;;;;;;84.38;39.03;;;1.80;99.90;;;;;;5012898;28;20489;-47
2022/12/19 04:50:24;;;;;;;67.47;33.72;;;2.60;99.90;;;;;;4995295;28;20046;-50
2022/12/19 04:52:50;;;;;;;87.97;39.53;;;2.10;99.90;;;;;;4978936;28;20346;-50
2022/12/19 04:55:15;;;;;;;85.18;38.20;;;2.70;99.90;;;;;;5012610;28;20038;-49
2022/12/19 04:57:41;;;;;;;83.15;38.42;;;2.30;99.90;;;;;;5012314;28;20037;-50
2022/12/19 05:00:07;;;;;;;82.72;37.35;;;2.40;99.90;;;;;;5012622;28;20046;-50
2022/12/19 05:02:34;;;;;;;87.65;36.85;;;1.80;99.90;;;;;;5012493;28;20432;-49
2022/12/19 05:05:00;;;;;;;79.78;37.90;;;2.50;99.90;;;;;;5012734;28;20045;-50
2022/12/19 05:07:25;;;;;;;87.85;39.30;;;2.30;99.90;;;;;;5011224;28;20052;-49
2022/12/19 05:09:51;;;;;;;81.60;38.72;;;1.80;99.90;;;;;;5012685;28;20034;-48
2022/12/19 05:12:17;;;;;;;78.47;38.45;;;2.70;99.90;;;;;;5012096;28;20044;-51
2022/12/19 05:14:42;;;;;;;96.35;41.58;;;2.70;99.90;;;;;;5012269;28;20121;-48
2022/12/19 05:17:08;;;;;;;86.95;40.25;;;2.70;99.90;;;;;;5012078;28;20042;-48
2022/12/19 05:19:35;;;;;;;88.55;37.88;;;1.90;99.90;;;;;;5019697;28;20441;-48
2022/12/19 05:22:00;;;;;;;75.05;37.35;;;2.90;99.90;;;;;;4994431;28;20049;-52
2022/12/19 05:24:26;;;;;;;84.15;41.03;;;2.10;99.90;;;;;;5011119;28;20038;-47
2022/12/19 05:26:52;;;;;;;86.88;39.60;;;2.90;99.90;;;;;;5011745;28;20476;-49
2022/12/19 05:29:17;;;;;;;80.45;39.13;;;2.80;99.90;;;;;;5012205;28;20030;-50
2022/12/19 05:31:43;;;;;;;80.90;39.65;;;2.10;99.90;;;;;;5011963;28;20484;-50
2022/12/19 05:34:09;;;;;;;78.00;37.22;;;2.80;99.90;;;;;;5012098;28;20042;-48
2022/12/19 05:36:35;;;;;;;68.63;35.25;;;2.50;99.90;;;;;;5012096;28;20090;-49
2022/12/19 05:39:00;;;;;;;77.07;35.80;;;2.70;99.90;;;;;;5012128;28;20034;-47
2022/12/19 05:41:26;;;;;;;78.68;37.78;;;3.60;99.90;;;;;;5011943;28;20057;-48
2022/12/19 05:43:55;;;;;;;73.95;36.00;;;3.20;99.90;;;;;;4994219;28;20401;-47
2022/12/19 05:46:22;;;;;;;77.88;36.35;;;2.60;99.90;;;;;;5011405;28;20129;-48
2022/12/19 05:48:48;;;;;;;71.30;33.88;;;2.90;99.90;;;;;;5010759;28;20104;-48
2022/12/19 05:51:14;;;;;;;68.38;36.92;;;3.10;99.90;;;;;;5011597;28;20034;-47
2022/12/19 05:53:40;;;;;;;79.47;36.92;;;2.50;99.90;;;;;;5011875;28;20046;-48
2022/12/19 05:56:14;;;;;;;80.03;37.17;;;2.80;99.90;;;;;;5011041;28;20034;-51
2022/12/19 05:58:40;;;;;;;;;;;2.80;99.90;;;;;;5011932;28;20046;-47
2022/12/19 06:01:12;;;;;;;73.55;32.92;;;3.30;99.90;;;;;;5011583;28;19971;-49
2022/12/19 06:03:37;;;;;;;68.78;33.38;;;2.50;99.90;;;;;;5011706;28;20544;-50
2022/12/19 06:06:06;;;;;;;70.35;34.40;;;3.40;99.90;;;;;;5011628;28;20121;-49
2022/12/19 06:08:32;;;;;;;72.57;35.50;;;2.50;99.90;;;;;;5011054;28;20030;-52
2022/12/19 06:10:59;;;;;;;67.82;34.47;;;3.40;99.90;;;;;;4993774;28;20125;-52
2022/12/19 06:13:26;;;;;;;78.78;36.38;;;3.40;99.90;;;;;;4992930;28;20049;-49
2022/12/19 06:16:03;;;;;;;62.13;34.22;;;3.30;99.90;;;;;;5011453;28;20539;-47
2022/12/19 06:18:30;;;;;;;69.80;35.33;;;3.40;99.90;;;;;;5010789;28;20057;-52
2022/12/19 06:21:09;;;;;;;68.10;35.67;;;2.70;99.90;;;;;;5011095;28;20038;-49
2022/12/19 06:23:36;;;;;;;66.03;33.03;;;2.70;99.90;;;;;;4993908;28;20473;-51
2022/12/19 06:26:03;;;;;;;66.95;33.10;;;3.60;99.90;;;;;;5011177;28;20469;-47
2022/12/19 06:28:30;;;;;;;70.38;34.45;;;3.50;99.90;;;;;;5010876;28;20041;-52
2022/12/19 06:30:57;;;;;;;65.13;34.17;;;3.70;99.90;;;;;;5011157;28;20444;-49
2022/12/19 06:33:24;;;;;;;64.32;33.42;;;3.00;99.90;;;;;;4993403;28;20091;-49
2022/12/19 06:35:59;;;;;;;65.97;33.83;;;3.70;99.90;;;;;;5011050;28;20045;-49
2022/12/19 06:38:27;;;;;;;61.08;32.78;;;3.30;99.90;;;;;;4993561;28;20547;-51
2022/12/19 06:43:37;;;;;;;65.90;33.17;;;3.70;99.90;;;;;;5010015;28;20037;-49
2022/12/19 06:46:03;;;;;;;62.78;33.35;;;3.90;99.90;;;;;;5010720;28;20048;-49
2022/12/19 06:48:28;;;;;;;57.40;32.63;;;3.70;99.90;;;;;;5010935;28;20034;-53
2022/12/19 06:50:54;;;;;;;65.03;33.47;;;3.10;99.90;;;;;;4993082;28;20157;-52
2022/12/19 06:53:20;;;;;;;61.72;33.45;;;4.00;99.90;;;;;;5010933;28;20061;-49
2022/12/19 06:55:47;;;;;;;67.45;35.65;;;4.00;99.90;;;;;;5009734;28;20030;-48
2022/12/19 06:58:13;;;;;;;73.65;35.08;;;4.00;99.90;;;;;;4992827;28;20484;-50
2022/12/19 07:00:39;;;;;;;67.43;33.72;;;4.00;99.90;;;;;;5010641;28;20283;-49
2022/12/19 07:03:08;;;;;;;61.28;33.58;;;3.90;99.90;;;;;;5010796;28;20075;-49
2022/12/19 07:05:33;;;;;;;66.40;33.85;;;3.70;99.90;;;;;;5010659;28;20149;-50
2022/12/19 07:07:59;;;;;;;60.60;31.52;;;3.40;99.90;;;;;;5010481;28;20443;-48
2022/12/19 07:10:25;;;;;;;70.30;35.83;;;4.20;99.90;;;;;;5010261;28;20032;-47
2022/12/19 07:12:51;;;;;;;59.65;32.67;;;3.80;99.90;;;;;;4998934;28;20092;-50
2022/12/19 07:15:16;;;;;;;63.63;34.58;;;3.90;99.90;;;;;;5010752;28;20042;-47
2022/12/19 07:17:42;;;;;;;62.83;33.10;;;3.80;99.90;;;;;;5010894;28;20074;-50
2022/12/19 07:20:09;;;;;;;63.38;34.13;;;3.40;99.90;;;;;;5010257;28;20057;-51
2022/12/19 07:22:35;;;;;;;65.07;33.75;;;3.50;99.90;;;;;;5010950;28;20037;-50
2022/12/19 07:25:02;;;;;;;60.47;32.40;;;3.50;99.90;;;;;;4995547;28;20138;-50
2022/12/19 07:27:28;;;;;;;65.45;32.60;;;4.40;99.90;;;;;;5013891;28;20052;-49
2022/12/19 07:29:54;;;;;;;59.13;31.98;;;4.50;99.90;;;;;;5014276;28;20034;-52
2022/12/19 07:32:20;;;;;;;59.92;32.42;;;3.70;99.90;;;;;;5014365;28;20481;-53
2022/12/19 07:34:46;;;;;;;54.90;31.83;;;4.50;99.90;;;;;;5014329;28;20044;-47
2022/12/19 07:37:12;;;;;;;57.20;31.45;;;3.70;99.90;;;;;;5014562;28;20560;-49
2022/12/19 07:39:37;;;;;;;56.42;29.90;;;4.40;99.90;;;;;;5014122;28;20049;-48
2022/12/19 07:42:03;;;;;;;55.60;30.40;;;4.60;99.90;;;;;;5013821;28;20511;-50
2022/12/19 07:44:29;;;;;;;55.50;30.48;;;4.60;99.90;;;;;;5014278;28;20042;-52
2022/12/19 07:46:55;;;;;;;60.28;31.50;;;4.50;99.90;;;;;;5012822;28;20096;-48
2022/12/19 07:49:21;;;;;;;57.20;30.98;;;4.40;99.90;;;;;;5013846;28;20466;-51
2022/12/19 07:51:47;;;;;;;55.50;30.38;;;4.20;99.90;;;;;;5014040;28;20045;-49
2022/12/19 07:54:12;;;;;;;56.72;30.48;;;5.10;99.90;;;;;;4996104;28;20092;-52
2022/12/19 07:56:38;;;;;;;58.63;30.75;;;5.10;99.90;;;;;;5014070;28;20431;-49
2022/12/19 07:59:04;;;;;;;55.50;31.55;;;4.00;99.90;;;;;;4993129;28;20104;-50
2022/12/19 08:01:29;;;;;;;54.38;30.52;;;4.30;99.90;;;;;;5013080;28;20045;-49
2022/12/19 08:03:55;;;;;;;52.83;31.00;;;4.60;99.90;;;;;;5012446;28;20081;-49
2022/12/19 08:06:22;;;;;;;58.17;31.17;;;4.60;99.90;;;;;;5013835;28;20063;-51
2022/12/19 08:08:48;;;;;;;53.03;31.60;;;3.90;99.90;;;;;;5013623;28;20405;-50
2022/12/19 08:11:26;;;;;;;54.97;30.63;;;4.80;99.90;;;;;;5013716;28;20091;-52
2022/12/19 08:13:56;;;;;;;54.88;30.73;;;4.60;99.90;;;;;;5003064;28;20132;-52
2022/12/19 08:16:25;;;;;;;54.10;30.80;;;4.80;99.90;;;;;;5004878;28;20046;-51
2022/12/19 08:18:51;;;;;;;59.35;31.40;;;4.10;99.90;;;;;;5003823;28;20058;-53
2022/12/19 08:21:17;;;;;;;56.15;30.85;;;4.90;99.90;;;;;;5004527;28;20731;-52
2022/12/19 08:23:44;;;;;;;56.50;30.85;;;4.90;99.90;;;;;;4985815;28;20065;-50
2022/12/19 08:26:13;;;;;;;55.67;31.23;;;4.60;99.90;;;;;;5004500;28;20575;-53
2022/12/19 08:28:38;;;;;;;58.35;33.65;;;4.40;99.90;;;;;;5003625;28;20415;-49
2022/12/19 08:31:09;;;;;;;61.15;32.53;;;5.00;99.90;;;;;;5003943;28;20038;-51
2022/12/19 08:33:36;;;;;;;51.80;30.90;;;5.00;99.90;;;;;;5004328;28;20461;-53
2022/12/19 08:36:10;;;;;;;52.10;31.50;;;4.30;99.90;;;;;;5003405;28;20032;-52
2022/12/19 08:38:38;;;;;;;56.15;30.58;;;4.70;99.90;;;;;;5004265;28;20623;-51
2022/12/19 08:41:04;;;;;;;58.05;31.30;;;4.40;99.90;;;;;;5004408;28;20073;-52
2022/12/19 08:43:30;;;;;;;56.13;30.85;;;5.00;99.90;;;;;;5004488;28;20038;-53
2022/12/19 08:45:56;;;;;;;61.17;31.63;;;4.50;99.90;;;;;;5004028;28;20109;-53
2022/12/19 08:48:22;;;;;;;58.78;33.00;;;5.10;99.90;;;;;;4985742;28;20050;-49
2022/12/19 08:50:52;;;;;;;56.00;32.25;;;5.30;99.90;;;;;;5003285;28;20046;-51
2022/12/19 08:53:19;;;;;;;59.83;32.13;;;4.80;99.90;;;;;;5002618;28;20533;-49
2022/12/19 08:55:44;;;;;;;55.28;31.70;;;5.70;99.90;;;;;;5002503;28;20038;-53
2022/12/19 08:58:10;;;;;;;56.47;31.98;;;5.00;99.90;;;;;;5002635;28;20111;-51
2022/12/19 09:00:36;;;;;;;55.90;32.22;;;4.80;99.90;;;;;;5002109;28;20469;-52
2022/12/19 09:03:02;;;;;;;55.60;32.75;;;5.60;99.90;;;;;;5001663;28;20041;-54
2022/12/19 09:05:27;;;;;;;52.47;31.88;;;5.50;99.90;;;;;;5006022;28;20050;-51
2022/12/19 09:07:53;;;;;;;55.72;32.75;;;5.50;99.90;;;;;;5002283;28;20116;-52
2022/12/19 09:10:19;;;;;;;52.13;31.27;;;5.00;99.90;;;;;;5003695;28;20022;-51
2022/12/19 09:12:45;;;;;;;55.58;32.88;;;5.80;99.90;;;;;;5003048;28;20119;-52
2022/12/19 09:15:11;;;;;;;57.00;32.65;;;5.30;99.90;;;;;;5002805;28;20424;-52
2022/12/19 09:17:37;;;;;;;56.17;33.03;;;5.90;99.90;;;;;;5002333;28;20053;-50
2022/12/19 09:20:03;;;;;;;46.92;29.50;;;5.80;99.90;;;;;;5001577;28;20117;-52
2022/12/19 09:22:29;;;;;;;53.60;31.52;;;6.00;99.90;;;;;;4999938;28;20114;-53
2022/12/19 09:24:55;;;;;;;52.92;30.25;;;5.30;99.90;;;;;;5002160;28;20120;-51
2022/12/19 09:27:20;;;;;;;50.17;31.23;;;6.10;99.90;;;;;;5001213;28;20475;-52
2022/12/19 09:29:46;;;;;;;48.45;29.10;;;6.10;99.90;;;;;;5002701;28;20038;-52
2022/12/19 09:32:12;;;;;;;50.67;29.65;;;6.20;99.90;;;;;;5002351;28;20527;-49
2022/12/19 09:34:37;;;;;;;48.00;29.20;;;6.30;99.90;;;;;;4982949;28;20041;-50
2022/12/19 09:37:04;;;;;;;53.30;30.15;;;5.60;99.90;;;;;;5001877;28;20555;-53
2022/12/19 09:39:30;;;;;;;49.53;29.73;;;6.30;99.90;;;;;;5001727;28;20085;-52
2022/12/19 09:42:14;;;;;;;55.38;30.52;;;6.30;99.90;;;;;;5001328;28;20088;-49
2022/12/19 09:44:51;;;;;;;47.93;28.93;;;5.90;99.90;;;;;;5000536;28;20336;-48
2022/12/19 09:47:22;;;;;;;51.35;30.17;;;6.10;99.90;;;;;;4999738;28;20180;-50
2022/12/19 09:49:48;;;;;;;52.08;29.17;;;5.80;99.90;;;;;;5000004;28;20109;-50
2022/12/19 09:52:40;;;;;;;50.78;29.40;;;6.30;99.90;;;;;;5002341;28;20104;-52
2022/12/19 09:55:22;;;;;;;46.47;28.38;;;6.70;99.90;;;;;;4995779;28;20061;-51
2022/12/19 09:57:57;;;;;;;46.42;27.70;;;5.90;99.90;;;;;;4982514;28;20045;-51
2022/12/19 10:00:26;;;;;;;48.65;29.08;;;6.20;99.90;;;;;;5002113;28;20559;-54
2022/12/19 10:03:21;;;;;;;49.03;29.80;;;6.70;99.90;;;;;;5001824;28;20038;-53
2022/12/19 10:05:52;;;;;;;47.00;27.77;;;6.00;99.90;;;;;;5000796;28;20057;-54
2022/12/19 10:08:30;;;;;;;48.75;28.48;;;6.20;99.90;;;;;;5002432;28;20508;-49
2022/12/19 10:11:08;;;;;;;49.60;28.20;;;6.30;99.90;;;;;;5001621;28;20042;-49
2022/12/19 10:13:59;;;;;;;48.45;28.38;;;6.00;99.90;;;;;;4999651;28;20044;-49
2022/12/19 10:16:46;;;;;;;46.63;27.80;;;6.40;99.90;;;;;;4999852;28;20046;-51
2022/12/19 10:19:22;;;;;;;43.10;26.23;;;6.20;99.90;;;;;;4983864;28;20044;-49
2022/12/19 10:22:02;;;;;;;46.65;27.38;;;6.60;99.90;;;;;;4987273;28;20501;-52
2022/12/19 10:24:51;;;;;;;41.45;26.00;;;7.00;99.90;;;;;;5000608;28;20117;-52
2022/12/19 10:27:26;;;;;;;40.42;25.60;;;7.10;99.90;;;;;;5000628;28;20064;-53
2022/12/19 10:30:09;;;;;;;38.67;24.70;;;6.40;99.90;;;;;;5001930;28;20029;-50
2022/12/19 10:32:53;;;;;;;40.55;26.55;;;6.50;99.90;;;;;;5001399;28;20034;-51
2022/12/19 10:35:19;;;;;;;36.85;24.38;;;7.10;99.90;;;;;;5000778;28;20041;-50
2022/12/19 10:38:06;;;;;;;38.95;24.60;;;7.20;99.90;;;;;;4981105;28;20038;-52
2022/12/19 10:40:37;;;;;;;34.85;23.42;;;6.60;99.90;;;;;;5002116;28;20385;-52
2022/12/19 10:43:27;;;;;;;40.03;25.23;;;7.30;99.90;;;;;;5002190;28;20030;-52
2022/12/19 10:45:58;;;;;;;32.45;21.90;;;7.10;99.90;;;;;;5000530;28;20038;-51
2022/12/19 10:48:23;;;;;;;33.85;23.15;;;6.90;99.90;;;;;;4998756;28;20045;-54
2022/12/19 10:50:49;;;;;;;35.35;22.73;;;6.70;99.90;;;;;;5000980;28;20046;-53
2022/12/19 10:53:16;;;;;;;34.08;23.58;;;7.50;99.90;;;;;;4999990;28;20485;-53
2022/12/19 10:55:50;;;;;;;30.85;21.13;;;7.20;99.90;;;;;;5001572;28;20590;-50
2022/12/19 10:58:17;;;;;;;31.42;22.33;;;6.80;99.90;;;;;;5001284;28;20042;-51
2022/12/19 11:00:55;;;;;;;29.48;20.33;;;7.60;99.90;;;;;;5005052;28;20080;-50
2022/12/19 11:03:21;;;;;;;28.73;20.05;;;6.90;99.90;;;;;;5004138;28;20361;-50
2022/12/19 11:05:50;;;;;;;31.70;21.35;;;6.90;99.90;;;;;;5004295;28;20041;-53
2022/12/19 11:08:28;;;;;;;29.92;19.23;;;7.00;99.90;;;;;;5004030;28;20223;-51
2022/12/19 11:11:04;;;;;;;29.38;20.25;;;7.00;99.90;;;;;;5004062;28;20109;-51
2022/12/19 11:13:42;;;;;;;29.83;19.67;;;7.00;99.90;;;;;;5004705;28;20038;-50
2022/12/19 11:16:08;;;;;;;27.80;18.70;;;7.70;99.90;;;;;;5002257;28;20091;-50
2022/12/19 11:18:35;;;;;;;29.98;18.85;;;7.00;99.90;;;;;;5003240;28;20030;-55
2022/12/19 11:21:29;;;;;;;30.48;20.15;;;7.80;99.90;;;;;;4984936;28;20042;-52
2022/12/19 11:23:58;;;;;;;26.25;18.15;;;7.00;99.90;;;;;;5003379;28;20022;-50
2022/12/19 11:26:31;;;;;;;26.02;18.88;;;7.50;99.90;;;;;;4988156;28;20139;-49
2022/12/19 11:29:03;;;;;;;27.52;18.67;;;7.10;99.90;;;;;;4986976;28;20447;-53
2022/12/19 11:31:30;;;;;;;26.33;18.33;;;7.30;99.90;;;;;;5004911;28;20109;-52
2022/12/19 11:34:04;;;;;;;24.50;17.42;;;7.90;99.90;;;;;;5005061;28;20104;-52
2022/12/19 11:36:33;;;;;;;;;;;7.90;99.90;;;;;;5001426;28;20044;-50
2022/12/19 11:38:59;;;;;;;24.40;17.52;;;8.00;99.90;;;;;;5005154;28;19921;-53
2022/12/19 11:41:27;;;;;;;27.50;18.70;;;7.90;99.90;;;;;;5007180;28;20092;-52
2022/12/19 11:44:03;;;;;;;21.90;16.45;;;7.60;99.90;;;;;;4987438;28;20046;-52
2022/12/19 11:46:46;;;;;;;26.80;18.77;;;7.90;99.90;;;;;;5006085;28;20038;-50
2022/12/19 11:49:30;;;;;;;27.80;18.00;;;7.40;99.90;;;;;;5004812;28;20092;-50
2022/12/19 11:52:21;;;;;;;23.48;17.05;;;7.60;99.90;;;;;;5004818;28;20246;-51
2022/12/19 11:55:03;;;;;;;24.27;16.85;;;8.20;99.90;;;;;;5005325;28;20096;-51
2022/12/19 11:57:28;;;;;;;24.40;17.23;;;8.20;99.90;;;;;;5002733;28;20038;-52
2022/12/19 11:59:54;;;;;;;24.83;16.25;;;7.70;99.90;;;;;;5004150;28;20040;-49
2022/12/19 12:02:50;;;;;;;22.90;15.48;;;7.50;99.90;;;;;;5003791;28;20030;-51
2022/12/19 12:05:46;;;;;;;22.38;16.05;;;8.20;99.90;;;;;;4988200;28;20034;-49
2022/12/19 12:08:30;;;;;;;23.98;14.77;;;8.20;99.90;;;;;;5000369;28;20065;-54
2022/12/19 12:11:00;;;;;;;19.60;15.40;;;7.90;99.90;;;;;;5002114;28;20040;-49
2022/12/19 12:13:42;;;;;;;21.35;14.95;;;8.30;99.90;;;;;;5002332;28;20036;-49
2022/12/19 12:16:14;;;;;;;21.33;14.85;;;8.40;99.90;;;;;;4985686;28;20033;-51
2022/12/19 12:18:48;;;;;;;22.02;15.48;;;8.40;99.90;;;;;;5003153;28;20049;-53
2022/12/19 12:21:26;;;;;;;20.23;14.60;;;7.70;99.90;;;;;;5003103;28;20137;-54
2022/12/19 12:24:01;;;;;;;19.48;14.43;;;8.20;99.90;;;;;;5003478;28;20126;-49
2022/12/19 12:26:32;;;;;;;20.15;14.65;;;8.60;99.90;;;;;;5001359;28;20057;-50
2022/12/19 12:29:15;;;;;;;19.30;14.10;;;8.50;99.90;;;;;;5003980;28;20085;-53
2022/12/19 12:31:45;;;;;;;20.83;14.63;;;8.60;99.90;;;;;;4986824;28;20638;-51
2022/12/19 12:34:13;;;;;;;18.40;13.95;;;8.00;99.90;;;;;;5004119;28;20041;-53
2022/12/19 12:36:49;;;;;;;18.80;13.70;;;8.60;99.90;;;;;;5003374;28;20045;-49
2022/12/19 12:39:23;;;;;;;19.38;13.75;;;8.10;99.90;;;;;;5010611;28;20049;-50
2022/12/19 12:42:13;;;;;;;20.38;14.40;;;7.90;99.90;;;;;;5010647;28;20044;-52
2022/12/19 12:44:40;;;;;;;16.20;13.00;;;8.60;99.90;;;;;;4993914;28;20396;-53
2022/12/19 12:47:12;;;;;;;20.08;13.63;;;8.20;99.90;;;;;;5013072;28;20056;-49
2022/12/19 12:49:45;;;;;;;17.75;13.85;;;8.70;99.90;;;;;;5011874;28;20229;-50
2022/12/19 12:52:18;;;;;;;18.75;14.13;;;7.90;99.90;;;;;;5013096;28;20116;-48
2022/12/19 12:54:46;;;;;;;18.33;13.98;;;8.50;99.90;;;;;;5013306;28;20439;-51
2022/12/19 12:57:25;;;;;;;18.20;13.82;;;8.60;99.90;;;;;;5012812;28;20120;-52
2022/12/19 13:00:14;;;;;;;19.85;14.95;;;8.70;99.90;;;;;;5012890;28;20041;-52
2022/12/19 13:02:41;;;;;;;15.65;13.52;;;8.60;99.90;;;;;;5011406;28;20041;-49